Date,TemperatureHighF,TemperatureAvgF,TemperatureLowF,DewpointHighF,DewpointAvgF,DewpointLowF,HumidityHigh,HumidityAvg,HumidityLow,PressureMaxIn,PressureMinIn,WindSpeedMaxMPH,WindSpeedAvgMPH,GustSpeedMaxMPH,PrecipitationSumIn
2013-1-1,15,5,-1,9,-28,-100,84,52,55,29.69,29.48,11,-176,13,0.00
2013-1-2,6,0,-6,-8,-80,-100,65,12,47,29.96,29.59,9,-656,22,0.00
2013-1-3,4,0,-5,-6,-79,-100,72,16,59,30.04,29.78,6,-686,7,0.00
2013-1-4,22,9,-10,18,-31,-100,89,51,71,29.83,29.53,4,-312,10,0.00
2013-1-5,21,8,-11,19,-11,-100,90,62,46,30.24,29.57,8,-78,16,0.00
2013-1-6,12,1,-13,4,-8,-100,79,69,62,30.25,30.01,2,0,10,0.00
2013-1-7,4,-5,-16,-6,-17,-100,72,61,40,30.42,30.13,6,-19,11,0.00
2013-1-8,32,10,-11,24,-25,-100,74,48,61,30.28,30.05,9,-269,11,0.00
2013-1-9,34,12,23,33,-56,-100,97,31,75,30.37,29.66,3,-489,5,0.00
2013-1-10,36,19,20,35,-26,-100,100,51,66,30.48,29.66,8,-189,21,0.00
2013-1-11,28,18,11,15,0,-100,86,63,51,30.55,30.28,2,-104,5,0.00
2013-1-12,34,10,24,29,-58,-100,84,24,53,30.28,29.99,6,-552,7,0.00
2013-1-13,45,20,37,42,-42,-100,100,37,81,30.06,29.84,5,-436,5,0.51
2013-1-14,55,29,23,52,-5,-100,100,52,52,30.18,29.68,11,-252,16,0.10
2013-1-15,22,13,0,5,2,-5,81,63,48,30.32,30.18,4,1,17,0.00
2013-1-16,27,11,2,17,5,-3,82,75,59,30.23,29.92,6,1,11,0.00
2013-1-17,0,-7,-15,-16,-19,-23,64,55,43,30.20,30.06,3,1,8,0.00
2013-1-18,2,-9,-23,-15,-23,-33,66,53,32,30.29,30.19,5,1,16,0.00
2013-1-19,19,8,-5,12,0,-16,86,71,51,30.25,29.97,3,0,5,0.00
2013-1-20,33,21,2,33,16,-10,98,80,55,30.00,29.27,8,3,27,0.00
2013-1-21,6,-1,-11,-10,-14,-20,67,54,40,30.02,29.65,6,3,11,0.00
2013-1-22,2,-13,-27,-16,-24,-36,69,57,35,29.99,29.84,5,1,8,0.00
2013-1-23,-5,-12,-21,-21,-25,-31,62,52,37,29.95,29.82,6,2,13,0.00
2013-1-24,-4,-7,-9,-15,-19,-21,60,53,46,29.97,29.80,7,3,14,0.00
2013-1-25,7,0,-8,-7,-11,-18,69,59,45,30.10,29.97,8,4,13,0.00
2013-1-26,9,2,-4,-5,-8,-12,70,61,49,30.07,29.98,6,3,14,0.00
2013-1-27,10,5,-4,-2,-6,-13,69,60,47,30.36,30.04,7,4,18,0.00
2013-1-28,20,3,-8,-5,-10,-16,75,56,23,30.38,30.13,2,0,5,0.01
2013-1-29,29,14,-3,12,4,-10,79,64,49,30.22,30.10,3,1,10,0.00
2013-1-30,50,37,22,50,34,10,100,91,56,30.11,29.31,10,4,21,0.03
2013-1-31,54,24,47,54,-27,-100,100,49,100,29.29,28.55,3,-514,7,0.29
2013-2-1,-200,0,200,-100,-100,-100,0,0,100,29.90,29.15,0,0,0,0.00
2013-2-2,-200,0,200,-100,-100,-100,0,0,100,30.07,29.91,0,-298,0,0.00
2013-2-3,-200,0,200,-100,-100,-100,0,0,100,30.08,29.72,0,-999,0,0.00
2013-2-4,-200,0,200,-100,-100,-100,0,0,100,29.70,29.35,0,-999,0,0.00
2013-2-5,-200,0,200,-100,-100,-100,0,0,100,29.81,29.54,0,-999,0,0.00
2013-2-6,-200,0,200,-100,-100,-100,0,0,100,29.92,29.81,0,0,0,0.00
2013-2-7,-200,0,200,-100,-100,-100,0,0,100,30.54,30.13,0,0,0,0.00
2013-2-8,-200,0,200,-100,-100,-100,0,0,100,30.57,30.29,0,0,0,0.00
2013-2-9,-200,0,200,-100,-100,-100,0,0,100,30.28,30.04,0,0,0,0.00
2013-2-10,-200,0,200,-100,-100,-100,0,0,100,30.26,30.08,0,0,0,0.00
2013-2-11,-200,0,200,-100,-100,-100,0,0,100,30.23,29.53,0,0,0,0.00
2013-2-12,-200,0,200,-100,-100,-100,0,0,100,29.59,29.37,0,0,0,0.00
2013-2-13,30,24,24,26,7,-100,89,73,67,29.78,29.60,5,1,12,0.00
2013-2-14,33,12,14,21,-54,-100,91,26,49,29.98,29.75,157,-495,157,0.09
2013-2-15,-200,0,200,-100,-100,-100,0,0,100,30.00,29.94,0,-736,0,0.00
2013-2-16,-200,0,200,-100,-100,-100,0,0,100,29.92,29.84,0,-255,0,0.00
2013-2-17,-200,0,200,-100,-100,-100,0,0,100,29.81,29.64,0,-25,0,0.00
2013-2-18,21,15,11,10,2,-100,79,61,50,29.81,29.05,13,9,35,0.00
2013-2-19,33,21,11,16,5,-100,74,55,40,30.05,29.82,8,-38,18,0.00
2013-2-20,35,28,25,35,16,-100,100,82,64,29.82,29.39,6,-68,7,0.00
2013-2-21,35,4,26,33,-92,-100,98,6,77,30.21,29.45,6,-749,6,0.00
2013-2-22,34,19,10,21,-9,-100,90,57,54,30.42,30.17,4,-216,7,0.00
2013-2-23,28,17,5,22,12,0,89,81,71,30.40,30.11,2,0,5,0.00
2013-2-24,30,23,16,25,10,-100,91,75,68,30.11,29.93,4,-85,4,0.00
2013-2-25,38,18,5,19,0,-100,87,63,28,30.24,29.97,2,-62,4,0.00
2013-2-26,40,19,-1,21,10,-7,89,70,26,30.40,30.25,2,0,3,0.00
2013-2-27,42,24,6,20,12,2,88,63,27,30.33,30.00,4,1,4,0.00
2013-2-28,30,27,25,29,15,-100,100,77,60,29.99,29.75,2,-41,3,0.00
2013-3-1,36,24,28,30,3,-100,96,70,76,29.77,29.65,3,-180,7,0.00
2013-3-2,38,34,29,34,32,26,100,91,85,29.68,29.62,4,2,7,0.00
2013-3-3,40,35,33,39,24,-100,100,86,88,29.63,29.45,3,-40,4,0.00
2013-3-4,42,19,36,35,-34,-100,90,41,73,29.81,29.45,4,-498,18,0.00
2013-3-5,40,35,31,31,26,-100,86,74,65,30.30,29.81,4,-19,8,0.00
2013-3-6,37,30,27,25,20,16,78,65,53,30.45,30.31,3,1,9,0.00
2013-3-7,32,28,26,21,19,16,75,68,58,30.45,30.35,4,1,11,0.00
2013-3-8,43,30,20,22,19,15,88,66,36,30.39,30.33,5,1,12,0.00
2013-3-9,45,29,20,23,19,-100,94,70,36,30.44,30.34,3,-10,6,0.00
2013-3-10,36,29,19,23,21,16,97,73,51,30.45,30.19,5,2,10,0.00
2013-3-11,45,38,32,31,28,22,79,68,53,30.20,30.04,7,3,13,0.00
2013-3-12,43,40,36,42,36,-100,96,88,77,30.07,29.82,7,-3,14,0.30
2013-3-13,46,41,34,44,39,26,98,92,71,29.82,29.55,6,2,14,0.15
2013-3-14,39,32,22,28,23,15,87,69,47,29.65,29.48,8,2,15,0.00
2013-3-15,26,19,10,15,9,6,89,66,47,29.69,29.56,5,2,10,0.00
2013-3-16,26,16,6,9,5,-1,91,64,32,29.85,29.63,8,2,17,0.00
2013-3-17,17,10,4,9,0,-8,85,65,43,30.21,29.84,8,3,22,0.00
2013-3-18,25,12,1,1,-4,-9,79,52,29,30.36,30.20,8,3,20,0.00
2013-3-19,30,17,0,10,4,-3,87,60,34,30.36,29.89,5,1,13,0.00
2013-3-20,28,22,15,25,19,10,94,90,62,29.89,29.38,4,2,10,0.00
2013-3-21,36,26,16,26,20,14,94,82,54,29.70,29.46,6,2,13,0.08
2013-3-22,36,22,7,26,18,4,95,85,62,29.66,29.33,8,2,15,0.11
2013-3-23,36,30,26,33,27,24,94,89,83,29.52,29.23,6,3,13,0.21
2013-3-24,43,32,20,33,26,18,95,82,63,29.80,29.52,7,2,13,0.27
2013-3-25,40,32,20,28,24,19,98,76,51,29.79,29.71,4,1,10,0.03
2013-3-26,41,32,20,32,27,18,97,84,63,29.70,29.60,8,2,10,0.01
2013-3-27,47,38,33,37,34,32,98,86,63,29.88,29.66,4,1,10,0.21
2013-3-28,50,39,29,34,29,24,98,71,36,29.91,29.85,6,2,11,0.00
2013-3-29,48,36,24,32,24,12,98,68,26,29.96,29.88,6,2,14,0.00
2013-3-30,47,32,17,23,17,11,97,62,24,30.05,29.95,5,1,11,0.00
2013-3-31,51,28,14,22,16,12,93,69,25,30.08,29.87,5,1,9,0.00
2013-4-1,39,36,32,36,31,20,96,83,47,29.85,29.44,4,1,11,0.30
2013-4-2,31,23,16,26,12,6,81,64,42,29.62,29.45,7,4,20,0.00
2013-4-3,32,22,10,20,11,2,81,64,48,29.79,29.58,7,4,24,0.00
2013-4-4,44,33,22,28,13,6,82,48,24,30.00,29.79,9,4,12,0.00
2013-4-5,41,35,29,34,30,24,94,82,58,29.86,29.65,4,2,13,0.00
2013-4-6,29,24,18,24,9,4,82,54,35,30.27,29.73,10,5,17,0.00
2013-4-7,37,26,9,31,14,4,89,62,45,30.30,29.86,6,2,9,0.00
2013-4-8,42,35,28,34,30,25,94,81,59,30.15,29.81,6,2,12,0.00
2013-4-9,38,32,25,36,30,23,97,92,80,30.16,29.93,2,0,4,0.07
2013-4-10,43,37,30,34,31,21,98,80,57,29.94,29.86,7,2,9,0.02
2013-4-11,36,31,24,20,14,10,62,50,37,30.19,29.88,9,4,12,0.00
2013-4-12,44,33,21,32,20,16,96,63,37,30.27,30.06,3,1,5,0.00
2013-4-13,39,34,31,35,32,30,98,94,86,30.04,29.85,2,0,3,0.43
2013-4-14,41,35,32,35,33,31,98,93,79,30.18,29.91,2,0,6,0.15
2013-4-15,51,40,26,33,29,26,99,71,40,30.37,30.18,3,1,6,0.00
2013-4-16,47,41,36,41,36,30,95,82,65,30.32,29.73,8,4,20,0.18
2013-4-17,46,41,33,42,28,19,94,63,36,30.34,29.75,9,5,16,0.04
2013-4-18,46,35,22,33,23,18,93,65,33,30.48,29.98,7,1,8,0.08
2013-4-19,67,54,39,54,43,28,86,68,56,29.95,29.49,8,4,12,0.00
2013-4-20,59,46,37,56,40,27,97,82,52,29.97,29.43,6,3,11,0.36
2013-4-21,40,32,23,31,17,10,84,57,30,30.73,30.01,7,3,10,0.01
2013-4-22,53,36,17,22,17,15,94,53,23,30.84,30.64,5,2,10,0.00
2013-4-23,57,42,24,27,19,11,88,46,17,30.64,30.32,6,2,13,0.00
2013-4-24,56,47,37,50,42,29,99,84,55,30.30,29.70,4,1,7,0.00
2013-4-25,53,47,31,50,37,27,98,72,40,30.31,29.65,8,4,10,0.03
2013-4-26,58,41,25,28,25,19,96,61,22,30.48,30.32,4,1,9,0.00
2013-4-27,62,42,24,31,26,22,95,61,22,30.46,30.28,4,1,7,0.00
2013-4-28,68,47,27,33,29,25,96,57,22,30.35,30.20,4,1,9,0.00
2013-4-29,72,52,30,39,32,28,93,53,20,30.28,30.16,4,1,4,0.00
2013-4-30,74,56,32,42,34,28,88,50,20,30.35,30.24,5,1,14,0.00
2013-5-1,77,57,36,44,39,31,96,58,19,30.45,30.35,3,1,8,0.00
2013-5-2,70,54,38,42,35,24,83,53,20,30.58,30.45,3,1,7,0.00
2013-5-3,71,50,30,36,33,28,96,58,24,30.63,30.40,3,1,5,0.00
2013-5-4,74,54,30,38,33,28,95,53,21,30.43,30.21,3,1,7,0.00
2013-5-5,81,59,36,41,36,32,86,48,19,30.22,30.06,6,2,10,0.00
2013-5-6,84,67,47,44,40,36,72,41,19,30.12,29.94,7,3,14,0.00
2013-5-7,84,66,49,42,39,33,73,43,17,30.09,29.90,6,2,10,0.00
2013-5-8,83,64,41,48,42,38,89,50,22,30.21,30.04,6,2,11,0.00
2013-5-9,68,61,56,61,56,50,92,84,63,30.07,29.85,5,2,7,0.09
2013-5-10,60,56,44,57,51,42,97,86,65,30.01,29.84,6,2,12,0.01
2013-5-11,54,50,44,54,49,43,99,96,90,30.00,29.60,4,1,12,0.37
2013-5-12,60,54,50,55,51,48,99,90,64,29.65,29.49,2,1,4,0.63
2013-5-13,50,44,36,43,33,29,93,67,46,29.95,29.58,6,2,13,0.03
2013-5-14,52,41,28,35,31,27,98,71,46,30.01,29.94,5,1,7,0.00
2013-5-15,64,47,30,36,31,27,94,59,26,29.95,29.65,5,2,13,0.00
2013-5-16,54,47,40,52,45,38,98,93,81,29.75,29.52,3,2,6,0.28
2013-5-17,51,45,40,41,38,35,93,77,56,30.15,29.75,6,4,10,0.01
2013-5-18,56,46,29,35,33,28,98,64,42,30.37,30.29,3,1,6,0.00
2013-5-19,64,46,26,38,30,26,98,63,26,30.43,30.18,3,1,5,0.00
2013-5-20,52,49,44,52,46,40,99,91,64,30.18,29.93,5,2,7,0.40
2013-5-21,62,50,43,52,47,42,100,92,62,30.04,29.98,2,0,4,0.01
2013-5-22,54,49,42,51,48,42,100,96,87,30.02,29.90,3,1,10,0.05
2013-5-23,60,54,47,60,53,47,99,97,90,29.90,29.71,4,2,7,0.55
2013-5-24,60,51,44,60,50,44,99,98,96,29.97,29.69,4,2,8,0.60
2013-5-25,44,42,40,43,41,40,99,97,92,30.07,29.89,5,2,14,1.09
2013-5-26,54,45,41,51,44,40,100,97,88,29.88,29.72,4,2,14,0.59
2013-5-27,51,44,35,41,39,34,97,84,65,30.11,29.80,7,3,14,0.00
2013-5-28,68,48,29,43,36,28,100,68,28,30.24,30.12,4,1,9,0.00
2013-5-29,74,55,35,55,43,34,99,71,30,30.22,29.95,7,2,11,0.25
2013-5-30,72,60,53,62,57,53,99,91,71,29.94,29.89,3,0,8,0.07
2013-5-31,86,67,54,72,63,53,100,87,50,29.93,29.73,5,1,8,0.52
2013-6-1,75,63,50,69,60,49,100,92,75,29.85,29.77,3,1,4,0.28
2013-6-2,75,60,50,70,59,49,100,97,80,29.77,29.61,2,0,13,1.64
2013-6-3,77,67,54,64,58,46,100,75,42,29.69,29.61,4,2,10,0.00
2013-6-4,59,52,44,46,42,35,96,69,43,29.92,29.64,7,3,12,0.00
2013-6-5,64,52,40,39,35,27,83,55,26,30.08,29.93,6,3,12,0.00
2013-6-6,68,52,33,47,37,32,98,62,28,30.20,30.08,5,1,8,0.00
2013-6-7,66,56,44,54,48,42,95,78,55,30.16,30.05,2,0,5,0.00
2013-6-8,56,52,48,54,50,46,98,94,86,30.06,29.85,3,1,5,0.69
2013-6-9,56,51,46,52,49,46,99,94,89,30.13,29.99,1,0,4,0.10
2013-6-10,77,58,39,57,49,39,100,76,38,30.17,29.99,4,1,10,0.00
2013-6-11,68,60,46,59,55,46,100,83,61,29.99,29.74,2,0,5,0.04
2013-6-12,69,60,48,57,47,37,100,66,38,29.78,29.69,4,1,5,0.07
2013-6-13,76,58,37,52,43,36,98,65,28,29.83,29.69,3,0,5,0.00
2013-6-14,75,56,44,62,52,43,99,86,47,29.71,29.60,3,0,9,0.45
2013-6-15,70,57,44,54,46,41,100,72,36,29.75,29.65,6,2,14,0.02
2013-6-16,64,52,37,51,41,33,98,72,31,29.87,29.75,4,1,6,0.36
2013-6-17,63,55,49,59,54,48,100,96,85,29.78,29.72,2,0,4,0.14
2013-6-18,64,54,45,54,50,44,100,85,58,29.93,29.78,4,1,8,0.05
2013-6-19,69,54,38,51,45,37,100,75,41,30.07,29.92,4,1,6,0.00
2013-6-20,75,62,40,50,45,40,100,59,31,30.18,30.08,4,1,6,0.00
2013-6-21,74,63,44,56,47,36,95,59,33,30.17,30.09,5,1,8,0.00
2013-6-22,78,59,38,61,50,37,99,77,51,30.17,30.00,4,1,9,0.00
2013-6-23,81,67,51,64,60,50,100,80,52,30.09,29.86,4,1,8,0.00
2013-6-24,83,71,57,67,63,56,100,79,51,29.86,29.68,4,1,9,0.00
2013-6-25,86,70,56,71,65,56,100,86,54,29.75,29.57,4,1,8,0.46
2013-6-26,60,57,53,57,54,52,99,92,82,29.91,29.70,2,0,8,0.21
2013-6-27,56,51,47,55,50,47,99,97,94,29.99,29.86,2,0,4,0.58
2013-6-28,54,51,48,54,51,48,100,99,96,29.98,29.68,2,0,7,0.99
2013-6-29,64,58,52,63,58,52,100,100,98,29.68,29.56,1,0,3,0.83
2013-6-30,75,66,57,67,62,56,100,88,65,29.89,29.63,4,1,9,0.02
2013-7-1,74,64,54,63,54,42,100,76,34,30.18,29.90,4,1,10,0.00
2013-7-2,75,61,49,56,51,47,98,74,40,30.29,30.16,4,1,6,0.00
2013-7-3,83,68,53,68,60,52,97,77,50,30.17,29.98,3,1,9,0.00
2013-7-4,88,76,60,68,64,59,100,70,43,30.05,29.91,4,1,9,0.00
2013-7-5,88,78,66,71,66,58,96,71,36,29.93,29.85,5,2,10,0.00
2013-7-6,87,74,61,71,65,60,100,76,43,29.91,29.76,3,1,6,0.00
2013-7-7,80,72,61,68,59,42,88,65,32,29.93,29.77,5,1,8,0.00
2013-7-8,77,64,51,55,50,47,90,65,36,30.08,29.92,3,1,9,0.00
2013-7-9,78,63,44,65,54,43,99,75,49,30.15,30.02,2,0,4,0.00
2013-7-10,75,68,60,66,63,58,97,86,73,30.01,29.68,6,2,13,0.00
2013-7-11,77,69,53,68,61,50,97,78,50,29.99,29.59,5,2,16,0.00
2013-7-12,80,62,46,60,50,44,99,71,28,30.20,29.99,2,0,5,0.00
2013-7-13,88,66,45,64,52,44,100,68,27,30.29,30.16,2,0,6,0.00
2013-7-14,91,71,50,67,58,50,100,70,31,30.22,30.09,2,0,9,0.00
2013-7-15,92,75,58,68,62,57,100,69,34,30.10,29.98,4,1,14,0.00
2013-7-16,87,73,56,65,60,52,99,68,31,30.15,30.05,2,0,6,0.00
2013-7-17,84,66,51,75,63,51,100,92,71,30.13,29.84,3,1,11,1.02
2013-7-18,79,68,56,66,58,52,100,74,43,29.96,29.87,4,1,11,0.02
2013-7-19,80,67,55,74,65,55,100,93,81,29.92,29.43,6,2,11,0.48
2013-7-20,79,72,56,70,65,52,91,80,58,29.70,29.42,5,2,10,0.01
2013-7-21,69,58,45,52,46,42,96,69,40,30.00,29.71,5,2,9,0.00
2013-7-22,78,59,39,59,48,38,100,72,36,30.05,29.88,3,0,7,0.00
2013-7-23,69,62,54,66,59,54,100,92,72,29.88,29.53,2,0,4,0.65
2013-7-24,76,63,50,70,59,48,100,89,52,29.95,29.50,4,1,13,0.18
2013-7-25,73,58,44,59,51,43,100,78,48,30.16,29.95,3,0,5,0.00
2013-7-26,62,57,51,61,56,51,100,97,87,30.16,29.97,2,0,4,0.41
2013-7-27,72,62,55,64,60,55,100,92,73,30.03,29.89,4,1,8,0.14
2013-7-28,77,65,52,66,59,52,100,84,62,30.10,30.02,2,0,5,0.00
2013-7-29,69,62,58,66,61,58,100,96,89,30.06,29.99,1,0,3,0.29
2013-7-30,75,64,56,64,61,56,100,91,62,30.03,29.92,3,0,13,0.21
2013-7-31,78,63,51,62,57,51,100,82,47,29.98,29.92,5,1,7,0.00
2013-8-1,81,65,48,66,58,48,100,81,49,30.00,29.84,3,1,7,0.00
2013-8-2,70,61,55,67,60,55,99,95,87,29.84,29.67,4,1,8,1.34
2013-8-3,67,58,50,64,57,50,100,95,80,29.72,29.63,2,0,3,0.19
2013-8-4,73,60,49,64,57,49,100,91,66,29.74,29.66,4,0,5,0.04
2013-8-5,61,56,51,59,55,49,100,97,88,29.87,29.72,3,1,9,0.60
2013-8-6,76,60,46,59,52,45,98,77,44,30.09,29.88,4,1,6,0.00
2013-8-7,80,63,46,65,55,45,100,79,42,30.17,30.06,3,0,5,0.00
2013-8-8,64,59,52,62,57,51,100,94,83,30.06,29.98,5,1,8,0.12
2013-8-9,71,65,62,68,65,62,100,98,88,30.00,29.68,4,0,5,0.07
2013-8-10,69,64,53,65,57,49,100,79,57,29.82,29.59,7,2,12,0.02
2013-8-11,76,62,51,60,52,48,99,74,44,29.88,29.80,5,2,13,0.03
2013-8-12,74,60,50,63,56,50,100,88,54,29.89,29.81,4,0,7,0.15
2013-8-13,67,58,51,63,58,51,100,97,79,29.88,29.69,1,0,4,0.15
2013-8-14,69,60,52,66,58,50,100,91,70,29.69,29.52,5,2,9,0.27
2013-8-15,72,60,50,57,52,48,97,77,50,29.97,29.67,5,2,9,0.02
2013-8-16,73,59,46,61,55,46,100,88,59,30.15,29.97,3,0,4,0.01
2013-8-17,73,58,47,56,51,47,100,81,46,30.23,30.15,4,1,10,0.00
2013-8-18,80,62,41,62,53,41,100,74,42,30.21,29.89,5,1,12,0.00
2013-8-19,78,67,56,65,59,55,98,77,57,29.89,29.76,6,2,11,0.00
2013-8-20,77,65,56,70,62,55,100,93,74,30.00,29.86,2,0,4,0.03
2013-8-21,86,71,58,70,64,58,100,81,53,30.00,29.82,5,1,7,0.00
2013-8-22,80,71,62,69,65,60,98,83,68,29.82,29.70,4,1,12,0.17
2013-8-23,67,59,45,61,52,44,99,82,50,30.11,29.72,5,2,13,0.27
2013-8-24,75,57,40,54,47,40,100,76,39,30.27,30.12,3,1,5,0.01
2013-8-25,79,60,42,62,52,41,100,78,43,30.31,30.06,2,0,4,0.00
2013-8-26,70,62,56,65,60,54,97,93,83,30.05,29.76,2,0,5,0.05
2013-8-27,76,66,55,63,60,54,100,84,58,29.88,29.79,4,1,4,0.00
2013-8-28,73,61,52,66,59,52,100,92,75,30.11,29.86,1,0,6,0.03
2013-8-29,67,57,45,54,51,44,98,81,59,30.23,30.06,2,0,4,0.00
2013-8-30,71,55,40,62,52,39,100,90,67,30.05,29.74,4,1,7,0.00
2013-8-31,77,65,56,65,61,56,100,87,59,29.82,29.74,3,0,3,0.03
2013-9-1,77,66,57,64,60,56,100,84,52,30.01,29.76,3,1,6,0.03
2013-9-2,62,57,53,59,55,53,100,94,82,30.07,29.86,2,0,6,0.94
2013-9-3,73,62,53,68,60,53,100,95,77,29.85,29.64,1,0,3,0.68
2013-9-4,71,59,41,60,54,40,100,86,64,29.84,29.59,6,1,11,0.01
2013-9-5,59,48,37,45,40,36,100,79,44,30.05,29.84,4,1,9,0.00
2013-9-6,67,51,34,47,40,33,100,71,37,30.07,29.88,4,1,7,0.00
2013-9-7,68,59,48,58,53,45,98,82,67,29.87,29.65,5,1,6,0.07
2013-9-8,59,51,41,58,47,39,99,87,57,29.91,29.63,7,2,10,0.06
2013-9-9,68,52,39,47,42,38,95,71,40,30.04,29.89,4,2,9,0.00
2013-9-10,69,60,51,56,52,46,94,75,56,30.04,29.95,2,1,5,0.05
2013-9-11,73,64,58,72,64,57,100,98,93,30.00,29.78,1,0,5,0.85
2013-9-12,69,64,60,68,64,60,100,100,97,29.84,29.55,1,0,3,0.26
2013-9-13,66,61,55,66,60,54,100,94,83,29.71,29.52,3,1,9,0.11
2013-9-14,55,50,42,54,49,42,100,97,92,29.93,29.71,3,1,9,0.23
2013-9-15,65,51,43,55,48,43,100,91,56,29.98,29.86,5,1,8,0.00
2013-9-16,56,46,36,53,42,34,97,85,63,30.19,29.86,5,2,10,0.19
2013-9-17,63,48,32,45,40,32,100,77,45,30.31,30.16,5,1,5,0.01
2013-9-18,71,54,40,49,44,39,97,73,37,30.15,29.96,4,1,7,0.00
2013-9-19,74,54,36,56,48,36,100,81,44,30.03,29.93,3,1,5,0.00
2013-9-20,66,56,49,60,54,48,100,92,77,30.08,30.00,2,0,4,0.00
2013-9-21,73,61,53,58,53,49,98,78,43,30.00,29.68,7,3,8,0.00
2013-9-22,68,59,48,63,57,47,99,93,81,29.67,29.49,6,2,9,1.11
2013-9-23,48,45,44,47,44,43,97,96,93,29.77,29.65,5,3,9,0.18
2013-9-24,53,47,42,48,45,42,99,94,84,29.83,29.71,4,3,8,0.18
2013-9-25,56,49,42,49,46,41,97,89,76,29.96,29.82,5,2,7,0.00
2013-9-26,60,51,42,53,48,42,100,90,76,30.14,29.96,4,1,7,0.00
2013-9-27,71,54,42,54,48,42,100,83,47,30.24,30.14,4,1,7,0.00
2013-9-28,76,53,38,56,47,38,100,84,46,30.33,30.19,2,0,5,0.00
2013-9-29,77,55,39,54,48,39,100,82,43,30.19,30.04,1,0,3,0.01
2013-9-30,74,52,40,56,46,40,100,85,39,30.09,29.97,2,0,4,0.00
2013-10-1,74,53,37,53,45,37,100,81,37,29.98,29.77,2,0,5,0.00
2013-10-2,73,57,41,59,47,40,100,74,39,29.77,29.58,5,2,6,0.00
2013-10-3,65,55,46,46,43,40,85,66,44,29.94,29.76,7,2,11,0.00
2013-10-4,58,47,37,42,39,36,96,75,49,30.09,29.92,6,2,7,0.00
2013-10-5,56,40,33,40,35,31,100,83,44,30.19,30.06,4,1,19,0.00
2013-10-6,59,43,28,41,34,28,99,74,40,30.29,30.18,1,0,2,0.01
2013-10-7,64,52,43,63,50,40,98,92,79,30.17,29.63,7,4,16,0.30
2013-10-8,57,50,39,55,42,34,98,75,47,30.30,29.67,7,3,11,0.13
2013-10-9,64,47,30,44,39,29,99,75,44,30.43,30.25,4,1,5,0.00
2013-10-10,73,52,34,51,44,33,99,78,43,30.25,30.13,2,0,6,0.00
2013-10-11,71,52,40,55,48,40,100,86,55,30.27,30.14,3,0,3,0.00
2013-10-12,59,47,38,47,44,37,99,88,59,30.41,30.27,2,0,3,0.00
2013-10-13,62,41,30,48,37,29,100,89,55,30.46,30.31,2,0,6,0.00
2013-10-14,52,44,32,52,43,31,100,99,97,30.31,30.18,2,0,4,0.10
2013-10-15,58,47,34,52,41,34,100,83,44,30.29,30.21,2,0,5,0.00
2013-10-16,55,46,32,52,45,32,100,95,87,30.21,29.89,3,1,4,0.00
2013-10-17,62,54,47,56,52,46,100,92,72,29.88,29.65,3,1,6,0.09
2013-10-18,54,48,42,52,47,42,100,98,92,29.68,29.57,3,0,4,0.28
2013-10-19,57,48,42,46,41,39,97,78,54,29.79,29.63,4,1,7,0.01
2013-10-20,49,45,41,48,43,37,100,92,71,29.74,29.58,5,1,9,0.30
2013-10-21,53,42,37,41,38,35,97,84,61,29.96,29.74,3,1,7,0.01
2013-10-22,51,45,40,50,44,39,100,97,92,29.95,29.59,7,2,10,0.35
2013-10-23,45,37,31,38,34,30,99,89,70,29.67,29.55,3,1,7,0.01
2013-10-24,40,35,31,33,30,25,97,81,58,29.56,29.47,6,2,11,0.01
2013-10-25,47,39,34,36,34,32,95,83,60,29.91,29.57,5,2,10,0.00
2013-10-26,45,36,30,35,30,27,97,83,51,29.98,29.80,4,1,8,0.06
2013-10-27,44,39,36,41,37,35,97,92,83,29.81,29.69,4,1,6,0.02
2013-10-28,37,33,27,35,31,26,97,93,83,30.25,29.82,3,1,5,0.07
2013-10-29,34,28,23,27,24,21,96,85,68,30.38,30.26,4,1,13,0.02
2013-10-30,38,29,22,28,24,20,94,82,64,30.31,30.10,4,1,16,0.02
2013-10-31,45,36,24,45,32,23,99,86,71,30.15,29.64,6,2,9,0.37
2013-11-1,62,56,47,60,53,45,99,93,66,29.62,29.02,7,5,23,0.33
2013-11-2,45,39,31,38,32,22,89,76,69,29.84,29.52,4,2,7,0.00
2013-11-3,37,29,22,21,19,14,88,65,47,30.37,29.84,5,2,9,0.00
2013-11-4,37,27,17,22,18,15,91,71,48,30.70,30.39,5,1,5,0.00
2013-11-5,39,28,15,28,21,13,95,77,49,30.72,30.41,4,1,8,0.00
2013-11-6,49,41,34,42,34,28,89,76,60,30.41,29.78,5,2,12,0.00
2013-11-7,51,43,31,50,41,28,98,93,83,29.75,29.50,7,3,10,0.25
2013-11-8,39,34,29,30,28,25,92,79,60,29.70,29.60,5,1,8,0.00
2013-11-9,33,31,29,29,25,22,95,77,69,30.05,29.71,7,3,13,0.00
2013-11-10,33,30,27,30,27,23,98,89,74,30.04,29.69,3,0,3,0.03
2013-11-11,33,31,30,31,29,29,97,92,84,29.88,29.70,4,1,9,0.05
2013-11-12,33,26,21,32,22,16,97,84,68,29.88,29.69,5,3,14,0.01
2013-11-13,31,24,19,19,16,14,86,70,50,30.04,29.90,8,3,15,0.00
2013-11-14,36,31,20,31,26,15,87,83,80,29.96,29.81,4,2,13,0.00
2013-11-15,45,38,32,33,32,30,93,80,61,30.13,29.96,5,2,11,0.11
2013-11-16,48,37,27,37,32,26,96,83,55,30.33,30.14,1,0,5,0.00
2013-11-17,49,34,22,40,31,20,98,91,57,30.34,30.02,4,1,7,0.17
2013-11-18,52,45,40,51,43,33,100,92,68,30.00,29.31,5,2,14,0.83
2013-11-19,41,33,28,34,24,16,87,70,62,29.98,29.41,8,5,23,0.00
2013-11-20,30,24,19,16,10,7,81,54,37,30.60,30.02,9,4,15,0.00
2013-11-21,42,26,15,21,17,9,94,72,26,30.60,30.32,2,0,9,0.00
2013-11-22,38,30,22,28,23,18,92,79,49,30.31,29.70,2,0,6,0.00
2013-11-23,32,27,18,32,23,13,98,84,71,29.67,29.44,8,3,24,0.00
2013-11-24,18,17,16,13,11,9,84,77,69,29.63,29.39,9,6,27,0.00
2013-11-25,21,17,15,13,8,6,87,68,56,30.19,29.65,9,5,17,0.00
2013-11-26,32,25,16,26,21,13,91,86,76,30.28,30.15,3,1,8,0.00
2013-11-27,49,37,26,49,36,23,100,97,85,30.22,29.10,4,2,13,1.56
2013-11-28,34,24,14,34,22,11,98,90,82,30.19,29.16,7,3,23,0.03
2013-11-29,20,13,8,12,9,6,93,85,66,30.66,30.20,4,1,14,0.00
2013-11-30,19,13,2,15,9,-1,94,83,64,30.77,30.44,2,0,8,0.00
2013-12-1,30,23,16,24,20,14,94,89,77,30.42,30.22,2,0,4,0.02
2013-12-2,29,26,17,29,25,16,98,96,94,30.23,30.00,0,0,2,0.00
2013-12-3,34,32,30,34,32,29,99,98,97,29.99,29.83,3,0,6,0.01
2013-12-4,33,31,28,32,30,25,98,94,89,30.19,29.80,6,4,19,0.00
2013-12-5,38,29,26,37,28,24,99,94,89,30.25,29.81,4,1,18,0.00
2013-12-6,41,36,29,40,31,19,100,81,62,29.95,29.76,7,2,15,0.01
2013-12-7,28,23,16,17,13,11,81,65,54,30.23,29.98,7,3,12,0.00
2013-12-8,20,13,5,12,7,1,90,77,60,30.57,30.23,4,1,8,0.00
2013-12-9,16,9,-2,14,6,-4,93,89,80,30.57,29.83,3,1,5,0.00
2013-12-10,28,18,8,23,16,5,94,89,80,29.80,29.66,7,1,10,0.00
2013-12-11,18,9,-3,11,4,-6,90,81,67,30.05,29.75,4,1,6,0.00
2013-12-12,1,-5,-12,-5,-10,-15,86,80,67,30.18,29.95,3,1,6,0.00
2013-12-13,8,-1,-8,2,-5,-13,88,80,66,30.32,29.82,5,1,13,0.00
2013-12-14,2,-7,-12,-7,-12,-17,86,79,62,30.63,30.33,4,1,4,0.00
2013-12-15,14,5,-6,12,2,-9,92,88,83,30.57,29.58,2,0,7,0.00
2013-12-16,13,8,-2,10,5,-6,92,88,85,30.06,29.58,4,1,8,0.00
2013-12-17,9,-3,-10,3,-7,-14,89,84,76,30.29,30.07,1,0,3,0.00
2013-12-18,16,7,-4,12,4,-7,94,88,83,30.22,29.83,1,0,1,0.00
2013-12-19,17,8,-6,14,6,-9,93,89,84,30.08,29.83,2,0,3,0.00
2013-12-20,10,6,-1,8,4,-4,91,89,86,30.23,30.09,1,0,2,0.00
2013-12-21,18,14,9,16,12,7,93,91,90,30.13,29.90,2,0,3,0.00
2013-12-22,16,14,12,13,12,10,92,91,88,30.20,30.12,3,1,6,0.00
2013-12-23,19,17,12,18,16,10,95,94,91,30.21,30.05,0,0,3,0.00
2013-12-24,20,16,12,19,14,10,96,91,85,30.12,30.04,3,1,7,0.00
2013-12-25,12,3,-13,10,-1,-17,91,84,72,30.54,30.10,3,1,10,0.00
2013-12-26,12,0,-12,10,-2,-15,92,88,84,30.52,30.18,0,0,0,0.00
2013-12-27,18,6,-8,15,3,-11,93,89,84,30.14,30.03,1,0,3,0.00
2013-12-28,28,19,2,25,16,0,93,90,89,30.07,29.78,5,2,9,0.00
2013-12-29,14,6,4,11,2,0,91,85,74,30.18,29.74,3,1,14,0.00
2013-12-30,17,9,-10,14,6,-13,93,89,83,30.08,29.58,5,1,5,0.00
2013-12-31,0,-6,-11,-6,-10,-14,87,83,74,30.16,30.06,2,0,7,0.00
2014-1-1,3,-10,-20,-3,-14,-24,87,80,72,30.47,30.06,4,1,8,0.00
2014-1-2,-13,-20,-31,-21,-25,-35,81,76,64,30.57,30.34,3,0,4,0.00